Hasabi II — ZCPG3 — position and weather

sailwx.info

Track history (hours):
 
Tides and Currents Weather Stations Pressure Air Temp Water Temp Dewpoint Dewpoint Depression Visibility Wind Speed Wind Dir Waves Ship Positions

Hasabi II

Last reported at 2015-Sep-02 00:31 UTC. Time now 2015-Sep-03 10:55 UTC.
Position N 40°29' E 024°35'.

Length 58 m; draft 3 m.

Type: Ship (hazmat cat C). MMSI: 319022000.

Date/timePositionNaut miles runAvg speedWind from/ knotsBaromVisibWave heightAir tempDewpointWater temp
2015-Sep-02 00:31N 40°29' E 024°35'1010.3
2015-Sep-01 23:33N 40°38' E 024°29'1010.0
2015-Sep-01 22:33N 40°47' E 024°33'7 7.2
2015-Sep-01 21:33N 40°47' E 024°42'0 0.0
2015-Sep-01 20:33N 40°47' E 024°42'0 0.0
2015-Sep-01 19:33N 40°47' E 024°42'0 0.0
2015-Sep-01 18:33N 40°47' E 024°42'0 0.0
2015-Sep-01 17:33N 40°47' E 024°42'0 0.0
2015-Sep-01 16:33N 40°47' E 024°42'0 0.2
2015-Sep-01 15:32N 40°47' E 024°42'10 7.5
2015-Sep-01 14:15N 40°52' E 024°32'7 9.9
2015-Sep-01 13:33N 40°56' E 024°24'1 0.6
2015-Sep-01 12:33N 40°56' E 024°25'0 0.0
2015-Sep-01 11:33N 40°56' E 024°25'0 0.0
2015-Sep-01 10:33N 40°56' E 024°25'0 0.0
2015-Sep-01 09:33N 40°56' E 024°25'0 0.0
2015-Sep-01 08:33N 40°56' E 024°25'0 0.0
2015-Sep-01 07:33N 40°56' E 024°25'0 0.0
2015-Sep-01 06:33N 40°56' E 024°25'0 0.0
2015-Sep-01 05:33N 40°56' E 024°25'0 0.0
2015-Sep-01 04:33N 40°56' E 024°25'0 0.0
2015-Sep-01 03:33N 40°56' E 024°25'0 0.0
2015-Sep-01 02:33N 40°56' E 024°25'0 0.0
2015-Sep-01 01:33N 40°56' E 024°25'0 0.0
2015-Sep-01 00:33N 40°56' E 024°25'0 0.0
2015-Aug-31 23:33N 40°56' E 024°25'0 0.0
2015-Aug-31 22:33N 40°56' E 024°25'0 0.0
2015-Aug-31 21:33N 40°56' E 024°25'0 0.0
2015-Aug-31 20:33N 40°56' E 024°25'0 0.0
2015-Aug-31 19:33N 40°56' E 024°25'0 0.0
2015-Aug-31 18:33N 40°56' E 024°25'0 0.0
2015-Aug-31 17:33N 40°56' E 024°25'0 0.0
2015-Aug-31 16:33N 40°56' E 024°25'0 0.0
2015-Aug-31 15:33N 40°56' E 024°25'0 0.0
2015-Aug-31 09:33N 40°56' E 024°25'0 0.0
2015-Aug-31 08:32N 40°56' E 024°25'0 0.0
2015-Aug-31 07:33N 40°56' E 024°25'0 0.0
2015-Aug-31 06:32N 40°56' E 024°25'0 0.0
2015-Aug-31 05:33N 40°56' E 024°25'0 0.0
2015-Aug-31 04:33N 40°56' E 024°25'0 0.0
2015-Aug-31 03:33N 40°56' E 024°25'0 0.0
2015-Aug-31 02:33N 40°56' E 024°25'0 0.0
2015-Aug-31 01:33N 40°56' E 024°25'0 0.0
2015-Aug-31 00:33N 40°56' E 024°25'0 0.0
2015-Aug-30 23:33N 40°56' E 024°25'0 0.0
2015-Aug-30 22:33N 40°56' E 024°25'0 0.0
2015-Aug-30 21:32N 40°56' E 024°25'0 0.0
2015-Aug-30 20:33N 40°56' E 024°25'0 0.0
2015-Aug-30 19:34N 40°56' E 024°25'0 0.0
2015-Aug-30 18:33N 40°56' E 024°25'0 0.0
2015-Aug-30 17:33N 40°56' E 024°25'0 0.0
2015-Aug-30 16:33N 40°56' E 024°25'0 0.0
2015-Aug-30 15:33N 40°56' E 024°25'0 0.0
2015-Aug-30 14:33N 40°56' E 024°25'0 0.0
2015-Aug-30 13:33N 40°56' E 024°25'0 0.0
2015-Aug-30 12:33N 40°56' E 024°25'2 2.4
2015-Aug-30 11:33N 40°54' E 024°27'  
2015-Aug-27 04:32N 40°54' E 024°29'4 4.0
2015-Aug-27 03:33N 40°56' E 024°25'0 0.0
2015-Aug-27 02:32N 40°56' E 024°25'0 0.0
2015-Aug-27 01:32N 40°56' E 024°25'0 0.0
2015-Aug-27 00:33N 40°56' E 024°25'0 0.0
2015-Aug-26 23:33N 40°56' E 024°25'0 0.0
2015-Aug-26 22:34N 40°56' E 024°25'0 0.0
2015-Aug-26 21:32N 40°56' E 024°25'0 0.0
2015-Aug-26 20:33N 40°56' E 024°25'0 0.0
2015-Aug-26 19:33N 40°56' E 024°25'0 0.0
2015-Aug-26 18:33N 40°56' E 024°25'0 0.0
2015-Aug-26 17:33N 40°56' E 024°25'0 0.0
2015-Aug-26 16:33N 40°56' E 024°25'0 0.0
2015-Aug-26 15:33N 40°56' E 024°25'0 0.0
2015-Aug-26 14:32N 40°56' E 024°25'0 0.0
2015-Aug-26 13:33N 40°56' E 024°25'0 0.0
2015-Aug-26 12:33N 40°56' E 024°25'0 0.0
2015-Aug-26 11:33N 40°56' E 024°25'1 0.6
2015-Aug-26 10:33N 40°55' E 024°24'9 9.1
2015-Aug-26 09:33N 40°51' E 024°35'7 6.4
2015-Aug-26 08:28N 40°47' E 024°42'0 0.0
2015-Aug-26 07:28N 40°47' E 024°42'0 0.0
2015-Aug-26 06:32N 40°47' E 024°42'0 0.0
2015-Aug-26 05:33N 40°47' E 024°42'0 0.0
2015-Aug-26 02:25N 40°47' E 024°42'0 0.0
2015-Aug-26 01:32N 40°47' E 024°42'0 0.0
2015-Aug-26 00:31N 40°47' E 024°42'0 0.0
2015-Aug-25 23:24N 40°47' E 024°42'0 0.0
2015-Aug-25 22:33N 40°47' E 024°42'0 0.0
2015-Aug-25 21:33N 40°47' E 024°42'0 0.0
2015-Aug-25 18:18N 40°47' E 024°42'0 0.0
2015-Aug-25 17:11N 40°47' E 024°42'0 0.0
2015-Aug-25 16:33N 40°47' E 024°42'0 0.0
2015-Aug-25 14:25N 40°47' E 024°42'0 0.0
2015-Aug-25 13:30N 40°47' E 024°42'0 0.0
2015-Aug-25 12:25N 40°47' E 024°42'3 2.8
2015-Aug-25 11:13N 40°49' E 024°39'6 9.2
2015-Aug-25 10:33N 40°46' E 024°32'32 3.5
2015-Aug-25 01:30N 40°15' E 024°20'  
Track history (hours):
 
Tides and Currents Weather Stations Pressure Air Temp Water Temp Dewpoint Dewpoint Depression Visibility Wind Speed Wind Dir Waves Ship Positions

Hasabi II

Last reported at 2015-Sep-02 00:31 UTC. Time now 2015-Sep-03 10:55 UTC.
Position N 40°29' E 024°35'.

Length 58 m; draft 3 m.

Type: Ship (hazmat cat C). MMSI: 319022000.

Date/timePositionNaut miles runAvg speedWind from/ knotsBaromVisibWave heightAir tempDewpointWater temp
2015-Sep-02 00:31N 40°29' E 024°35'1010.3
2015-Sep-01 23:33N 40°38' E 024°29'1010.0
2015-Sep-01 22:33N 40°47' E 024°33'7 7.2
2015-Sep-01 21:33N 40°47' E 024°42'0 0.0
2015-Sep-01 20:33N 40°47' E 024°42'0 0.0
2015-Sep-01 19:33N 40°47' E 024°42'0 0.0
2015-Sep-01 18:33N 40°47' E 024°42'0 0.0
2015-Sep-01 17:33N 40°47' E 024°42'0 0.0
2015-Sep-01 16:33N 40°47' E 024°42'0 0.2
2015-Sep-01 15:32N 40°47' E 024°42'10 7.5
2015-Sep-01 14:15N 40°52' E 024°32'7 9.9
2015-Sep-01 13:33N 40°56' E 024°24'1 0.6
2015-Sep-01 12:33N 40°56' E 024°25'0 0.0
2015-Sep-01 11:33N 40°56' E 024°25'0 0.0
2015-Sep-01 10:33N 40°56' E 024°25'0 0.0
2015-Sep-01 09:33N 40°56' E 024°25'0 0.0
2015-Sep-01 08:33N 40°56' E 024°25'0 0.0
2015-Sep-01 07:33N 40°56' E 024°25'0 0.0
2015-Sep-01 06:33N 40°56' E 024°25'0 0.0
2015-Sep-01 05:33N 40°56' E 024°25'0 0.0
2015-Sep-01 04:33N 40°56' E 024°25'0 0.0
2015-Sep-01 03:33N 40°56' E 024°25'0 0.0
2015-Sep-01 02:33N 40°56' E 024°25'0 0.0
2015-Sep-01 01:33N 40°56' E 024°25'0 0.0
2015-Sep-01 00:33N 40°56' E 024°25'0 0.0
2015-Aug-31 23:33N 40°56' E 024°25'0 0.0
2015-Aug-31 22:33N 40°56' E 024°25'0 0.0
2015-Aug-31 21:33N 40°56' E 024°25'0 0.0
2015-Aug-31 20:33N 40°56' E 024°25'0 0.0
2015-Aug-31 19:33N 40°56' E 024°25'0 0.0
2015-Aug-31 18:33N 40°56' E 024°25'0 0.0
2015-Aug-31 17:33N 40°56' E 024°25'0 0.0
2015-Aug-31 16:33N 40°56' E 024°25'0 0.0
2015-Aug-31 15:33N 40°56' E 024°25'0 0.0
2015-Aug-31 09:33N 40°56' E 024°25'0 0.0
2015-Aug-31 08:32N 40°56' E 024°25'0 0.0
2015-Aug-31 07:33N 40°56' E 024°25'0 0.0
2015-Aug-31 06:32N 40°56' E 024°25'0 0.0
2015-Aug-31 05:33N 40°56' E 024°25'0 0.0
2015-Aug-31 04:33N 40°56' E 024°25'0 0.0
2015-Aug-31 03:33N 40°56' E 024°25'0 0.0
2015-Aug-31 02:33N 40°56' E 024°25'0 0.0
2015-Aug-31 01:33N 40°56' E 024°25'0 0.0
2015-Aug-31 00:33N 40°56' E 024°25'0 0.0
2015-Aug-30 23:33N 40°56' E 024°25'0 0.0
2015-Aug-30 22:33N 40°56' E 024°25'0 0.0
2015-Aug-30 21:32N 40°56' E 024°25'0 0.0
2015-Aug-30 20:33N 40°56' E 024°25'0 0.0
2015-Aug-30 19:34N 40°56' E 024°25'0 0.0
2015-Aug-30 18:33N 40°56' E 024°25'0 0.0
2015-Aug-30 17:33N 40°56' E 024°25'0 0.0
2015-Aug-30 16:33N 40°56' E 024°25'0 0.0
2015-Aug-30 15:33N 40°56' E 024°25'0 0.0
2015-Aug-30 14:33N 40°56' E 024°25'0 0.0
2015-Aug-30 13:33N 40°56' E 024°25'0 0.0
2015-Aug-30 12:33N 40°56' E 024°25'2 2.4
2015-Aug-30 11:33N 40°54' E 024°27'  
2015-Aug-27 04:32N 40°54' E 024°29'4 4.0
2015-Aug-27 03:33N 40°56' E 024°25'0 0.0
2015-Aug-27 02:32N 40°56' E 024°25'0 0.0
2015-Aug-27 01:32N 40°56' E 024°25'0 0.0
2015-Aug-27 00:33N 40°56' E 024°25'0 0.0
2015-Aug-26 23:33N 40°56' E 024°25'0 0.0
2015-Aug-26 22:34N 40°56' E 024°25'0 0.0
2015-Aug-26 21:32N 40°56' E 024°25'0 0.0
2015-Aug-26 20:33N 40°56' E 024°25'0 0.0
2015-Aug-26 19:33N 40°56' E 024°25'0 0.0
2015-Aug-26 18:33N 40°56' E 024°25'0 0.0
2015-Aug-26 17:33N 40°56' E 024°25'0 0.0
2015-Aug-26 16:33N 40°56' E 024°25'0 0.0
2015-Aug-26 15:33N 40°56' E 024°25'0 0.0
2015-Aug-26 14:32N 40°56' E 024°25'0 0.0
2015-Aug-26 13:33N 40°56' E 024°25'0 0.0
2015-Aug-26 12:33N 40°56' E 024°25'0 0.0
2015-Aug-26 11:33N 40°56' E 024°25'1 0.6
2015-Aug-26 10:33N 40°55' E 024°24'9 9.1
2015-Aug-26 09:33N 40°51' E 024°35'7 6.4
2015-Aug-26 08:28N 40°47' E 024°42'0 0.0
2015-Aug-26 07:28N 40°47' E 024°42'0 0.0
2015-Aug-26 06:32N 40°47' E 024°42'0 0.0
2015-Aug-26 05:33N 40°47' E 024°42'0 0.0
2015-Aug-26 02:25N 40°47' E 024°42'0 0.0
2015-Aug-26 01:32N 40°47' E 024°42'0 0.0
2015-Aug-26 00:31N 40°47' E 024°42'0 0.0
2015-Aug-25 23:24N 40°47' E 024°42'0 0.0
2015-Aug-25 22:33N 40°47' E 024°42'0 0.0
2015-Aug-25 21:33N 40°47' E 024°42'0 0.0
2015-Aug-25 18:18N 40°47' E 024°42'0 0.0
2015-Aug-25 17:11N 40°47' E 024°42'0 0.0
2015-Aug-25 16:33N 40°47' E 024°42'0 0.0
2015-Aug-25 14:25N 40°47' E 024°42'0 0.0
2015-Aug-25 13:30N 40°47' E 024°42'0 0.0
2015-Aug-25 12:25N 40°47' E 024°42'3 2.8
2015-Aug-25 11:13N 40°49' E 024°39'6 9.2
2015-Aug-25 10:33N 40°46' E 024°32'32 3.5
2015-Aug-25 01:30N 40°15' E 024°20'  

Dump ship's entire track history